sensor_id;sensor_type;location;lat;lon;timestamp;pressure;altitude;pressure_sealevel;temperature
33877;BMP180;20166;51.738;7.158;2023-08-21T00:00:00;101783.00;;;20.10
33877;BMP180;20166;51.738;7.158;2023-08-21T00:02:46;101790.00;;;20.10
33877;BMP180;20166;51.738;7.158;2023-08-21T00:05:34;101788.00;;;20.10
33877;BMP180;20166;51.738;7.158;2023-08-21T00:08:21;101772.00;;;20.10
33877;BMP180;20166;51.738;7.158;2023-08-21T00:11:07;101766.00;;;20.10
33877;BMP180;20166;51.738;7.158;2023-08-21T00:13:54;101769.00;;;20.10
33877;BMP180;20166;51.738;7.158;2023-08-21T00:16:41;101783.00;;;20.10
33877;BMP180;20166;51.738;7.158;2023-08-21T00:19:27;101784.00;;;20.00
33877;BMP180;20166;51.738;7.158;2023-08-21T00:22:15;101783.00;;;20.00
33877;BMP180;20166;51.738;7.158;2023-08-21T00:25:01;101785.00;;;20.00
33877;BMP180;20166;51.738;7.158;2023-08-21T00:27:48;101779.00;;;20.00
33877;BMP180;20166;51.738;7.158;2023-08-21T00:30:34;101771.00;;;19.90
33877;BMP180;20166;51.738;7.158;2023-08-21T00:33:21;101767.00;;;19.80
33877;BMP180;20166;51.738;7.158;2023-08-21T00:36:08;101766.00;;;19.70
33877;BMP180;20166;51.738;7.158;2023-08-21T00:38:55;101768.00;;;19.70
33877;BMP180;20166;51.738;7.158;2023-08-21T00:41:42;101764.00;;;19.70
33877;BMP180;20166;51.738;7.158;2023-08-21T00:44:28;101773.00;;;19.70
33877;BMP180;20166;51.738;7.158;2023-08-21T00:47:14;101781.00;;;19.70
33877;BMP180;20166;51.738;7.158;2023-08-21T00:50:01;101776.00;;;19.60
33877;BMP180;20166;51.738;7.158;2023-08-21T00:52:47;101783.00;;;19.70
33877;BMP180;20166;51.738;7.158;2023-08-21T00:55:36;101790.00;;;19.70
33877;BMP180;20166;51.738;7.158;2023-08-21T00:58:23;101790.00;;;19.80
33877;BMP180;20166;51.738;7.158;2023-08-21T01:01:09;101773.00;;;19.80
33877;BMP180;20166;51.738;7.158;2023-08-21T01:03:56;101772.00;;;19.70
33877;BMP180;20166;51.738;7.158;2023-08-21T01:06:43;101771.00;;;19.70
33877;BMP180;20166;51.738;7.158;2023-08-21T01:09:33;101765.00;;;19.70
33877;BMP180;20166;51.738;7.158;2023-08-21T01:12:25;101770.00;;;19.60
33877;BMP180;20166;51.738;7.158;2023-08-21T01:15:14;101766.00;;;19.50
33877;BMP180;20166;51.738;7.158;2023-08-21T01:18:01;101754.00;;;19.40
33877;BMP180;20166;51.738;7.158;2023-08-21T01:20:48;101751.00;;;19.30
33877;BMP180;20166;51.738;7.158;2023-08-21T01:23:37;101752.00;;;19.20
33877;BMP180;20166;51.738;7.158;2023-08-21T01:26:23;101766.00;;;19.20
33877;BMP180;20166;51.738;7.158;2023-08-21T01:29:10;101760.00;;;19.20
33877;BMP180;20166;51.738;7.158;2023-08-21T01:32:02;101760.00;;;19.10
33877;BMP180;20166;51.738;7.158;2023-08-21T01:34:52;101763.00;;;19.10
33877;BMP180;20166;51.738;7.158;2023-08-21T01:37:41;101756.00;;;19.10
33877;BMP180;20166;51.738;7.158;2023-08-21T01:40:29;101753.00;;;19.10
33877;BMP180;20166;51.738;7.158;2023-08-21T01:43:16;101755.00;;;19.10
33877;BMP180;20166;51.738;7.158;2023-08-21T01:46:04;101754.00;;;19.10
33877;BMP180;20166;51.738;7.158;2023-08-21T01:48:50;101751.00;;;19.10
33877;BMP180;20166;51.738;7.158;2023-08-21T01:51:36;101760.00;;;19.10
33877;BMP180;20166;51.738;7.158;2023-08-21T01:54:23;101771.00;;;19.00
33877;BMP180;20166;51.738;7.158;2023-08-21T01:57:11;101765.00;;;19.00
33877;BMP180;20166;51.738;7.158;2023-08-21T01:59:57;101766.00;;;19.10
33877;BMP180;20166;51.738;7.158;2023-08-21T02:02:44;101773.00;;;19.10
33877;BMP180;20166;51.738;7.158;2023-08-21T02:05:30;101769.00;;;19.10
33877;BMP180;20166;51.738;7.158;2023-08-21T02:08:17;101760.00;;;19.10
33877;BMP180;20166;51.738;7.158;2023-08-21T02:11:04;101756.00;;;19.10
33877;BMP180;20166;51.738;7.158;2023-08-21T02:13:52;101761.00;;;19.00
33877;BMP180;20166;51.738;7.158;2023-08-21T02:16:38;101759.00;;;19.10
33877;BMP180;20166;51.738;7.158;2023-08-21T02:19:25;101762.00;;;19.10
33877;BMP180;20166;51.738;7.158;2023-08-21T02:22:12;101769.00;;;19.10
33877;BMP180;20166;51.738;7.158;2023-08-21T02:24:58;101763.00;;;19.20
33877;BMP180;20166;51.738;7.158;2023-08-21T02:27:44;101755.00;;;19.20
33877;BMP180;20166;51.738;7.158;2023-08-21T02:30:32;101751.00;;;19.20
33877;BMP180;20166;51.738;7.158;2023-08-21T02:33:19;101753.00;;;19.20
33877;BMP180;20166;51.738;7.158;2023-08-21T02:36:06;101756.00;;;19.10
33877;BMP180;20166;51.738;7.158;2023-08-21T02:38:55;101775.00;;;19.20
33877;BMP180;20166;51.738;7.158;2023-08-21T02:41:41;101774.00;;;19.20
33877;BMP180;20166;51.738;7.158;2023-08-21T02:44:27;101769.00;;;19.20
33877;BMP180;20166;51.738;7.158;2023-08-21T02:47:16;101756.00;;;19.20
33877;BMP180;20166;51.738;7.158;2023-08-21T02:50:03;101772.00;;;19.20
33877;BMP180;20166;51.738;7.158;2023-08-21T02:52:50;101763.00;;;19.10
33877;BMP180;20166;51.738;7.158;2023-08-21T02:55:36;101761.00;;;19.10
33877;BMP180;20166;51.738;7.158;2023-08-21T02:58:22;101757.00;;;19.10
33877;BMP180;20166;51.738;7.158;2023-08-21T03:01:09;101761.00;;;19.00
33877;BMP180;20166;51.738;7.158;2023-08-21T03:03:57;101760.00;;;19.00
33877;BMP180;20166;51.738;7.158;2023-08-21T03:06:44;101754.00;;;19.00
33877;BMP180;20166;51.738;7.158;2023-08-21T03:09:30;101756.00;;;19.00
33877;BMP180;20166;51.738;7.158;2023-08-21T03:12:17;101752.00;;;19.00
33877;BMP180;20166;51.738;7.158;2023-08-21T03:15:04;101757.00;;;19.00
33877;BMP180;20166;51.738;7.158;2023-08-21T03:17:50;101759.00;;;19.00
33877;BMP180;20166;51.738;7.158;2023-08-21T03:20:44;101763.00;;;19.00
33877;BMP180;20166;51.738;7.158;2023-08-21T03:23:30;101760.00;;;19.00
33877;BMP180;20166;51.738;7.158;2023-08-21T03:26:16;101752.00;;;19.00
33877;BMP180;20166;51.738;7.158;2023-08-21T03:29:02;101741.00;;;19.00
33877;BMP180;20166;51.738;7.158;2023-08-21T03:31:49;101744.00;;;19.00
33877;BMP180;20166;51.738;7.158;2023-08-21T03:34:36;101744.00;;;19.00
33877;BMP180;20166;51.738;7.158;2023-08-21T03:37:24;101746.00;;;18.90
33877;BMP180;20166;51.738;7.158;2023-08-21T03:40:11;101737.00;;;18.90
33877;BMP180;20166;51.738;7.158;2023-08-21T03:42:57;101738.00;;;18.90
33877;BMP180;20166;51.738;7.158;2023-08-21T03:45:43;101736.00;;;18.90
33877;BMP180;20166;51.738;7.158;2023-08-21T03:48:30;101740.00;;;18.90
33877;BMP180;20166;51.738;7.158;2023-08-21T03:51:17;101739.00;;;18.90
33877;BMP180;20166;51.738;7.158;2023-08-21T03:54:05;101740.00;;;18.80
33877;BMP180;20166;51.738;7.158;2023-08-21T03:56:51;101740.00;;;18.80
33877;BMP180;20166;51.738;7.158;2023-08-21T03:59:37;101746.00;;;18.80
33877;BMP180;20166;51.738;7.158;2023-08-21T04:02:23;101743.00;;;18.80
33877;BMP180;20166;51.738;7.158;2023-08-21T04:05:11;101741.00;;;18.80
33877;BMP180;20166;51.738;7.158;2023-08-21T04:07:57;101753.00;;;18.80
33877;BMP180;20166;51.738;7.158;2023-08-21T04:10:45;101753.00;;;18.90
33877;BMP180;20166;51.738;7.158;2023-08-21T04:13:31;101754.00;;;18.80
33877;BMP180;20166;51.738;7.158;2023-08-21T04:16:18;101763.00;;;18.90
33877;BMP180;20166;51.738;7.158;2023-08-21T04:19:06;101751.00;;;18.90
33877;BMP180;20166;51.738;7.158;2023-08-21T04:21:52;101746.00;;;18.90
33877;BMP180;20166;51.738;7.158;2023-08-21T04:24:40;101737.00;;;18.90
33877;BMP180;20166;51.738;7.158;2023-08-21T04:27:27;101742.00;;;18.90
33877;BMP180;20166;51.738;7.158;2023-08-21T04:30:14;101743.00;;;18.80
33877;BMP180;20166;51.738;7.158;2023-08-21T04:33:01;101748.00;;;18.80
33877;BMP180;20166;51.738;7.158;2023-08-21T04:35:47;101737.00;;;18.70
33877;BMP180;20166;51.738;7.158;2023-08-21T04:38:34;101741.00;;;18.60
33877;BMP180;20166;51.738;7.158;2023-08-21T04:41:21;101744.00;;;18.60
33877;BMP180;20166;51.738;7.158;2023-08-21T04:44:08;101744.00;;;18.60
33877;BMP180;20166;51.738;7.158;2023-08-21T04:46:55;101751.00;;;18.60
33877;BMP180;20166;51.738;7.158;2023-08-21T04:49:41;101753.00;;;18.60
33877;BMP180;20166;51.738;7.158;2023-08-21T04:52:28;101746.00;;;18.60
33877;BMP180;20166;51.738;7.158;2023-08-21T04:55:14;101751.00;;;18.60
33877;BMP180;20166;51.738;7.158;2023-08-21T04:58:01;101754.00;;;18.60
33877;BMP180;20166;51.738;7.158;2023-08-21T05:00:48;101761.00;;;18.70
33877;BMP180;20166;51.738;7.158;2023-08-21T05:03:35;101771.00;;;18.80
33877;BMP180;20166;51.738;7.158;2023-08-21T05:06:22;101772.00;;;18.90
33877;BMP180;20166;51.738;7.158;2023-08-21T05:09:09;101772.00;;;18.90
33877;BMP180;20166;51.738;7.158;2023-08-21T05:11:55;101759.00;;;18.80
33877;BMP180;20166;51.738;7.158;2023-08-21T05:14:42;101771.00;;;18.80
33877;BMP180;20166;51.738;7.158;2023-08-21T05:17:29;101767.00;;;18.80
33877;BMP180;20166;51.738;7.158;2023-08-21T05:20:16;101769.00;;;18.90
33877;BMP180;20166;51.738;7.158;2023-08-21T05:23:03;101761.00;;;18.90
33877;BMP180;20166;51.738;7.158;2023-08-21T05:25:49;101765.00;;;18.80
33877;BMP180;20166;51.738;7.158;2023-08-21T05:28:36;101762.00;;;18.70
33877;BMP180;20166;51.738;7.158;2023-08-21T05:31:23;101764.00;;;18.70
33877;BMP180;20166;51.738;7.158;2023-08-21T05:34:10;101766.00;;;18.70
33877;BMP180;20166;51.738;7.158;2023-08-21T05:36:57;101771.00;;;18.70
33877;BMP180;20166;51.738;7.158;2023-08-21T05:39:43;101778.00;;;18.80
33877;BMP180;20166;51.738;7.158;2023-08-21T05:42:29;101773.00;;;18.80
33877;BMP180;20166;51.738;7.158;2023-08-21T05:45:16;101771.00;;;18.80
33877;BMP180;20166;51.738;7.158;2023-08-21T05:48:03;101772.00;;;18.80
33877;BMP180;20166;51.738;7.158;2023-08-21T05:50:52;101782.00;;;18.80
33877;BMP180;20166;51.738;7.158;2023-08-21T05:53:39;101784.00;;;18.90
33877;BMP180;20166;51.738;7.158;2023-08-21T05:56:25;101777.00;;;18.90
33877;BMP180;20166;51.738;7.158;2023-08-21T05:59:11;101791.00;;;18.90
33877;BMP180;20166;51.738;7.158;2023-08-21T06:01:58;101781.00;;;19.00
33877;BMP180;20166;51.738;7.158;2023-08-21T06:04:45;101785.00;;;19.10
33877;BMP180;20166;51.738;7.158;2023-08-21T06:07:33;101788.00;;;19.20
33877;BMP180;20166;51.738;7.158;2023-08-21T06:10:20;101789.00;;;19.30
33877;BMP180;20166;51.738;7.158;2023-08-21T06:13:06;101798.00;;;19.30
33877;BMP180;20166;51.738;7.158;2023-08-21T06:15:53;101800.00;;;19.40
33877;BMP180;20166;51.738;7.158;2023-08-21T06:18:39;101798.00;;;19.40
33877;BMP180;20166;51.738;7.158;2023-08-21T06:21:26;101795.00;;;19.40
33877;BMP180;20166;51.738;7.158;2023-08-21T06:24:14;101788.00;;;19.40
33877;BMP180;20166;51.738;7.158;2023-08-21T06:27:01;101785.00;;;19.50
33877;BMP180;20166;51.738;7.158;2023-08-21T06:29:51;101784.00;;;19.50
33877;BMP180;20166;51.738;7.158;2023-08-21T06:32:37;101771.00;;;19.70
33877;BMP180;20166;51.738;7.158;2023-08-21T06:35:24;101781.00;;;19.80
33877;BMP180;20166;51.738;7.158;2023-08-21T06:38:10;101778.00;;;19.80
33877;BMP180;20166;51.738;7.158;2023-08-21T06:40:58;101798.00;;;20.00
33877;BMP180;20166;51.738;7.158;2023-08-21T06:43:49;101786.00;;;20.10
33877;BMP180;20166;51.738;7.158;2023-08-21T06:46:35;101795.00;;;20.20
33877;BMP180;20166;51.738;7.158;2023-08-21T06:49:22;101800.00;;;20.40
33877;BMP180;20166;51.738;7.158;2023-08-21T06:52:09;101798.00;;;20.50
33877;BMP180;20166;51.738;7.158;2023-08-21T06:54:55;101798.00;;;20.70
33877;BMP180;20166;51.738;7.158;2023-08-21T06:57:43;101798.00;;;20.80
33877;BMP180;20166;51.738;7.158;2023-08-21T07:00:29;101800.00;;;20.90
33877;BMP180;20166;51.738;7.158;2023-08-21T07:03:16;101793.00;;;21.00
33877;BMP180;20166;51.738;7.158;2023-08-21T07:06:03;101798.00;;;21.00
33877;BMP180;20166;51.738;7.158;2023-08-21T07:08:49;101806.00;;;21.10
33877;BMP180;20166;51.738;7.158;2023-08-21T07:11:36;101805.00;;;21.00
33877;BMP180;20166;51.738;7.158;2023-08-21T07:14:24;101803.00;;;21.20
33877;BMP180;20166;51.738;7.158;2023-08-21T07:17:10;101808.00;;;21.20
33877;BMP180;20166;51.738;7.158;2023-08-21T07:19:56;101800.00;;;21.40
33877;BMP180;20166;51.738;7.158;2023-08-21T07:22:43;101799.00;;;21.40
33877;BMP180;20166;51.738;7.158;2023-08-21T07:25:29;101805.00;;;21.50
33877;BMP180;20166;51.738;7.158;2023-08-21T07:28:16;101810.00;;;21.60
33877;BMP180;20166;51.738;7.158;2023-08-21T07:31:03;101811.00;;;21.70
33877;BMP180;20166;51.738;7.158;2023-08-21T07:33:50;101809.00;;;21.70
33877;BMP180;20166;51.738;7.158;2023-08-21T07:36:36;101806.00;;;21.80
33877;BMP180;20166;51.738;7.158;2023-08-21T07:39:23;101799.00;;;21.80
33877;BMP180;20166;51.738;7.158;2023-08-21T07:42:10;101802.00;;;21.90
33877;BMP180;20166;51.738;7.158;2023-08-21T07:44:57;101810.00;;;21.80
33877;BMP180;20166;51.738;7.158;2023-08-21T07:47:45;101797.00;;;21.90
33877;BMP180;20166;51.738;7.158;2023-08-21T07:50:51;101809.00;;;22.00
33877;BMP180;20166;51.738;7.158;2023-08-21T07:53:37;101806.00;;;22.10
33877;BMP180;20166;51.738;7.158;2023-08-21T07:56:24;101806.00;;;22.20
33877;BMP180;20166;51.738;7.158;2023-08-21T07:59:11;101799.00;;;22.30
33877;BMP180;20166;51.738;7.158;2023-08-21T08:01:57;101803.00;;;22.40
33877;BMP180;20166;51.738;7.158;2023-08-21T08:04:46;101804.00;;;22.60
33877;BMP180;20166;51.738;7.158;2023-08-21T08:07:33;101806.00;;;22.70
33877;BMP180;20166;51.738;7.158;2023-08-21T08:10:19;101813.00;;;22.80
33877;BMP180;20166;51.738;7.158;2023-08-21T08:13:07;101798.00;;;22.90
33877;BMP180;20166;51.738;7.158;2023-08-21T08:15:53;101803.00;;;23.00
33877;BMP180;20166;51.738;7.158;2023-08-21T08:18:39;101820.00;;;23.20
33877;BMP180;20166;51.738;7.158;2023-08-21T08:21:27;101823.00;;;23.40
33877;BMP180;20166;51.738;7.158;2023-08-21T08:24:14;101817.00;;;23.40
33877;BMP180;20166;51.738;7.158;2023-08-21T08:27:00;101821.00;;;23.50
33877;BMP180;20166;51.738;7.158;2023-08-21T08:29:46;101820.00;;;23.40
33877;BMP180;20166;51.738;7.158;2023-08-21T08:32:33;101815.00;;;23.50
33877;BMP180;20166;51.738;7.158;2023-08-21T08:35:20;101802.00;;;23.60
33877;BMP180;20166;51.738;7.158;2023-08-21T08:38:07;101801.00;;;23.70
33877;BMP180;20166;51.738;7.158;2023-08-21T08:40:55;101804.00;;;23.80
33877;BMP180;20166;51.738;7.158;2023-08-21T08:43:45;101813.00;;;23.90
33877;BMP180;20166;51.738;7.158;2023-08-21T08:46:32;101822.00;;;23.90
33877;BMP180;20166;51.738;7.158;2023-08-21T08:49:18;101816.00;;;23.70
33877;BMP180;20166;51.738;7.158;2023-08-21T08:52:06;101809.00;;;23.80
33877;BMP180;20166;51.738;7.158;2023-08-21T08:54:55;101812.00;;;23.90
33877;BMP180;20166;51.738;7.158;2023-08-21T08:57:43;101805.00;;;24.00
33877;BMP180;20166;51.738;7.158;2023-08-21T09:00:30;101809.00;;;24.10
33877;BMP180;20166;51.738;7.158;2023-08-21T09:03:17;101810.00;;;24.30
33877;BMP180;20166;51.738;7.158;2023-08-21T09:06:03;101807.00;;;24.40
33877;BMP180;20166;51.738;7.158;2023-08-21T09:08:54;101817.00;;;24.60
33877;BMP180;20166;51.738;7.158;2023-08-21T09:11:44;101817.00;;;24.60
33877;BMP180;20166;51.738;7.158;2023-08-21T09:14:30;101821.00;;;24.70
33877;BMP180;20166;51.738;7.158;2023-08-21T09:17:17;101809.00;;;24.90
33877;BMP180;20166;51.738;7.158;2023-08-21T09:20:04;101808.00;;;24.90
33877;BMP180;20166;51.738;7.158;2023-08-21T09:22:54;101807.00;;;25.00
33877;BMP180;20166;51.738;7.158;2023-08-21T09:25:41;101803.00;;;25.00
33877;BMP180;20166;51.738;7.158;2023-08-21T09:28:31;101804.00;;;24.80
33877;BMP180;20166;51.738;7.158;2023-08-21T09:31:21;101806.00;;;24.80
33877;BMP180;20166;51.738;7.158;2023-08-21T09:34:08;101808.00;;;25.10
33877;BMP180;20166;51.738;7.158;2023-08-21T09:36:55;101810.00;;;25.30
33877;BMP180;20166;51.738;7.158;2023-08-21T09:39:42;101809.00;;;25.50
33877;BMP180;20166;51.738;7.158;2023-08-21T09:42:29;101809.00;;;25.50
33877;BMP180;20166;51.738;7.158;2023-08-21T09:45:21;101815.00;;;25.60
33877;BMP180;20166;51.738;7.158;2023-08-21T09:48:08;101814.00;;;26.00
33877;BMP180;20166;51.738;7.158;2023-08-21T09:50:56;101814.00;;;26.10
33877;BMP180;20166;51.738;7.158;2023-08-21T09:53:42;101823.00;;;26.20
33877;BMP180;20166;51.738;7.158;2023-08-21T09:56:28;101817.00;;;26.40
33877;BMP180;20166;51.738;7.158;2023-08-21T09:59:16;101808.00;;;26.50
33877;BMP180;20166;51.738;7.158;2023-08-21T10:02:05;101809.00;;;26.40
33877;BMP180;20166;51.738;7.158;2023-08-21T10:04:52;101810.00;;;26.50
33877;BMP180;20166;51.738;7.158;2023-08-21T10:07:41;101809.00;;;26.50
33877;BMP180;20166;51.738;7.158;2023-08-21T10:10:29;101805.00;;;26.50
33877;BMP180;20166;51.738;7.158;2023-08-21T10:13:17;101802.00;;;26.60
33877;BMP180;20166;51.738;7.158;2023-08-21T10:16:04;101804.00;;;26.70
33877;BMP180;20166;51.738;7.158;2023-08-21T10:18:54;101804.00;;;26.90
33877;BMP180;20166;51.738;7.158;2023-08-21T10:21:41;101801.00;;;27.00
33877;BMP180;20166;51.738;7.158;2023-08-21T10:24:28;101795.00;;;26.90
33877;BMP180;20166;51.738;7.158;2023-08-21T10:27:15;101798.00;;;26.90
33877;BMP180;20166;51.738;7.158;2023-08-21T10:30:12;101803.00;;;26.80
33877;BMP180;20166;51.738;7.158;2023-08-21T10:32:59;101801.00;;;26.90
33877;BMP180;20166;51.738;7.158;2023-08-21T10:35:47;101796.00;;;26.90
33877;BMP180;20166;51.738;7.158;2023-08-21T10:38:59;101800.00;;;26.90
33877;BMP180;20166;51.738;7.158;2023-08-21T10:41:53;101803.00;;;27.00
33877;BMP180;20166;51.738;7.158;2023-08-21T10:44:48;101802.00;;;27.00
33877;BMP180;20166;51.738;7.158;2023-08-21T10:47:37;101813.00;;;27.10
33877;BMP180;20166;51.738;7.158;2023-08-21T10:50:23;101810.00;;;27.20
33877;BMP180;20166;51.738;7.158;2023-08-21T10:53:11;101810.00;;;27.30
33877;BMP180;20166;51.738;7.158;2023-08-21T10:56:01;101809.00;;;27.40
33877;BMP180;20166;51.738;7.158;2023-08-21T10:58:48;101800.00;;;27.50
33877;BMP180;20166;51.738;7.158;2023-08-21T11:01:43;101805.00;;;27.50
33877;BMP180;20166;51.738;7.158;2023-08-21T11:04:39;101799.00;;;27.50
33877;BMP180;20166;51.738;7.158;2023-08-21T11:07:27;101807.00;;;27.30
33877;BMP180;20166;51.738;7.158;2023-08-21T11:10:16;101803.00;;;27.10
33877;BMP180;20166;51.738;7.158;2023-08-21T11:13:06;101805.00;;;27.20
33877;BMP180;20166;51.738;7.158;2023-08-21T11:15:59;101800.00;;;27.40
33877;BMP180;20166;51.738;7.158;2023-08-21T11:18:46;101804.00;;;27.60
33877;BMP180;20166;51.738;7.158;2023-08-21T11:21:32;101805.00;;;27.70
33877;BMP180;20166;51.738;7.158;2023-08-21T11:24:18;101806.00;;;27.60
33877;BMP180;20166;51.738;7.158;2023-08-21T11:27:06;101811.00;;;27.50
33877;BMP180;20166;51.738;7.158;2023-08-21T11:29:54;101809.00;;;27.70
33877;BMP180;20166;51.738;7.158;2023-08-21T11:32:40;101807.00;;;27.80
33877;BMP180;20166;51.738;7.158;2023-08-21T11:35:28;101814.00;;;28.00
33877;BMP180;20166;51.738;7.158;2023-08-21T11:38:16;101809.00;;;27.90
33877;BMP180;20166;51.738;7.158;2023-08-21T11:41:05;101807.00;;;27.80
33877;BMP180;20166;51.738;7.158;2023-08-21T11:44:01;101825.00;;;27.80
33877;BMP180;20166;51.738;7.158;2023-08-21T11:46:50;101823.00;;;27.60
33877;BMP180;20166;51.738;7.158;2023-08-21T11:49:37;101818.00;;;27.70
33877;BMP180;20166;51.738;7.158;2023-08-21T11:52:26;101818.00;;;27.90
33877;BMP180;20166;51.738;7.158;2023-08-21T11:55:12;101823.00;;;28.10
33877;BMP180;20166;51.738;7.158;2023-08-21T11:58:02;101819.00;;;28.20
33877;BMP180;20166;51.738;7.158;2023-08-21T12:00:51;101816.00;;;28.00
33877;BMP180;20166;51.738;7.158;2023-08-21T12:03:38;101814.00;;;28.30
33877;BMP180;20166;51.738;7.158;2023-08-21T12:06:25;101812.00;;;28.70
33877;BMP180;20166;51.738;7.158;2023-08-21T12:09:13;101798.00;;;29.10
33877;BMP180;20166;51.738;7.158;2023-08-21T12:12:00;101807.00;;;29.00
33877;BMP180;20166;51.738;7.158;2023-08-21T12:14:46;101805.00;;;28.80
33877;BMP180;20166;51.738;7.158;2023-08-21T12:17:34;101806.00;;;28.60
33877;BMP180;20166;51.738;7.158;2023-08-21T12:20:22;101801.00;;;28.20
33877;BMP180;20166;51.738;7.158;2023-08-21T12:23:08;101800.00;;;28.00
33877;BMP180;20166;51.738;7.158;2023-08-21T12:25:54;101801.00;;;27.80
33877;BMP180;20166;51.738;7.158;2023-08-21T12:28:41;101798.00;;;27.50
33877;BMP180;20166;51.738;7.158;2023-08-21T12:31:28;101796.00;;;27.20
33877;BMP180;20166;51.738;7.158;2023-08-21T12:34:16;101789.00;;;27.10
33877;BMP180;20166;51.738;7.158;2023-08-21T12:37:04;101795.00;;;27.40
33877;BMP180;20166;51.738;7.158;2023-08-21T12:39:51;101793.00;;;27.80
33877;BMP180;20166;51.738;7.158;2023-08-21T12:42:37;101790.00;;;28.10
33877;BMP180;20166;51.738;7.158;2023-08-21T12:45:24;101794.00;;;28.40
33877;BMP180;20166;51.738;7.158;2023-08-21T12:48:10;101791.00;;;28.30
33877;BMP180;20166;51.738;7.158;2023-08-21T12:50:58;101788.00;;;28.10
33877;BMP180;20166;51.738;7.158;2023-08-21T12:53:45;101779.00;;;28.20
33877;BMP180;20166;51.738;7.158;2023-08-21T12:56:31;101791.00;;;28.50
33877;BMP180;20166;51.738;7.158;2023-08-21T12:59:18;101789.00;;;28.60
33877;BMP180;20166;51.738;7.158;2023-08-21T13:02:04;101788.00;;;28.60
33877;BMP180;20166;51.738;7.158;2023-08-21T13:04:51;101782.00;;;28.30
33877;BMP180;20166;51.738;7.158;2023-08-21T13:07:39;101783.00;;;28.30
33877;BMP180;20166;51.738;7.158;2023-08-21T13:10:25;101791.00;;;28.70
33877;BMP180;20166;51.738;7.158;2023-08-21T13:13:11;101787.00;;;28.90
33877;BMP180;20166;51.738;7.158;2023-08-21T13:15:57;101803.00;;;29.30
33877;BMP180;20166;51.738;7.158;2023-08-21T13:18:45;101792.00;;;29.60
33877;BMP180;20166;51.738;7.158;2023-08-21T13:21:31;101788.00;;;29.70
33877;BMP180;20166;51.738;7.158;2023-08-21T13:24:19;101794.00;;;29.50
33877;BMP180;20166;51.738;7.158;2023-08-21T13:27:06;101792.00;;;29.10
33877;BMP180;20166;51.738;7.158;2023-08-21T13:29:52;101798.00;;;28.80
33877;BMP180;20166;51.738;7.158;2023-08-21T13:32:38;101789.00;;;28.50
33877;BMP180;20166;51.738;7.158;2023-08-21T13:35:25;101787.00;;;28.60
33877;BMP180;20166;51.738;7.158;2023-08-21T13:38:12;101777.00;;;29.10
33877;BMP180;20166;51.738;7.158;2023-08-21T13:40:59;101785.00;;;29.60
33877;BMP180;20166;51.738;7.158;2023-08-21T13:43:46;101781.00;;;30.00
33877;BMP180;20166;51.738;7.158;2023-08-21T13:46:35;101772.00;;;30.20
33877;BMP180;20166;51.738;7.158;2023-08-21T13:49:21;101778.00;;;30.30
33877;BMP180;20166;51.738;7.158;2023-08-21T13:52:08;101778.00;;;30.00
33877;BMP180;20166;51.738;7.158;2023-08-21T13:54:54;101777.00;;;29.90
33877;BMP180;20166;51.738;7.158;2023-08-21T13:57:42;101780.00;;;29.70
33877;BMP180;20166;51.738;7.158;2023-08-21T14:00:28;101769.00;;;29.50
33877;BMP180;20166;51.738;7.158;2023-08-21T14:03:14;101774.00;;;29.30
33877;BMP180;20166;51.738;7.158;2023-08-21T14:06:01;101773.00;;;29.00
33877;BMP180;20166;51.738;7.158;2023-08-21T14:08:47;101779.00;;;28.80
33877;BMP180;20166;51.738;7.158;2023-08-21T14:11:34;101770.00;;;28.80
33877;BMP180;20166;51.738;7.158;2023-08-21T14:14:22;101769.00;;;29.10
33877;BMP180;20166;51.738;7.158;2023-08-21T14:17:08;101765.00;;;29.60
33877;BMP180;20166;51.738;7.158;2023-08-21T14:19:55;101747.00;;;29.60
33877;BMP180;20166;51.738;7.158;2023-08-21T14:22:42;101755.00;;;29.80
33877;BMP180;20166;51.738;7.158;2023-08-21T14:25:29;101751.00;;;30.10
33877;BMP180;20166;51.738;7.158;2023-08-21T14:28:15;101755.00;;;30.30
33877;BMP180;20166;51.738;7.158;2023-08-21T14:31:02;101751.00;;;30.50
33877;BMP180;20166;51.738;7.158;2023-08-21T14:33:50;101759.00;;;30.60
33877;BMP180;20166;51.738;7.158;2023-08-21T14:36:36;101754.00;;;30.80
33877;BMP180;20166;51.738;7.158;2023-08-21T14:39:23;101761.00;;;31.10
33877;BMP180;20166;51.738;7.158;2023-08-21T14:42:09;101748.00;;;31.40
33877;BMP180;20166;51.738;7.158;2023-08-21T14:44:56;101750.00;;;31.80
33877;BMP180;20166;51.738;7.158;2023-08-21T14:47:44;101752.00;;;32.10
33877;BMP180;20166;51.738;7.158;2023-08-21T14:50:30;101747.00;;;32.40
33877;BMP180;20166;51.738;7.158;2023-08-21T14:53:16;101744.00;;;32.90
33877;BMP180;20166;51.738;7.158;2023-08-21T14:56:03;101735.00;;;33.10
33877;BMP180;20166;51.738;7.158;2023-08-21T14:58:50;101735.00;;;33.30
33877;BMP180;20166;51.738;7.158;2023-08-21T15:01:36;101736.00;;;33.20
33877;BMP180;20166;51.738;7.158;2023-08-21T15:04:25;101729.00;;;32.60
33877;BMP180;20166;51.738;7.158;2023-08-21T15:07:11;101730.00;;;33.30
33877;BMP180;20166;51.738;7.158;2023-08-21T15:09:58;101730.00;;;33.90
33877;BMP180;20166;51.738;7.158;2023-08-21T15:12:44;101734.00;;;34.50
33877;BMP180;20166;51.738;7.158;2023-08-21T15:15:31;101731.00;;;35.10
33877;BMP180;20166;51.738;7.158;2023-08-21T15:18:17;101726.00;;;35.50
33877;BMP180;20166;51.738;7.158;2023-08-21T15:21:05;101732.00;;;35.80
33877;BMP180;20166;51.738;7.158;2023-08-21T15:23:51;101727.00;;;36.00
33877;BMP180;20166;51.738;7.158;2023-08-21T15:26:38;101726.00;;;36.00
33877;BMP180;20166;51.738;7.158;2023-08-21T15:29:25;101718.00;;;36.20
33877;BMP180;20166;51.738;7.158;2023-08-21T15:32:11;101723.00;;;36.00
33877;BMP180;20166;51.738;7.158;2023-08-21T15:34:58;101723.00;;;35.80
33877;BMP180;20166;51.738;7.158;2023-08-21T15:37:46;101719.00;;;34.30
33877;BMP180;20166;51.738;7.158;2023-08-21T15:40:34;101716.00;;;32.90
33877;BMP180;20166;51.738;7.158;2023-08-21T15:43:20;101720.00;;;32.10
33877;BMP180;20166;51.738;7.158;2023-08-21T15:46:06;101715.00;;;31.20
33877;BMP180;20166;51.738;7.158;2023-08-21T15:48:52;101708.00;;;30.70